Time;durP1;ratioP1;P1;durP2;ratioP2;P2;SDS_P1;SDS_P2;PMS_P1;PMS_P2;Temp;Humidity;BMP_temperature;BMP_pressure;BME280_temperature;BME280_humidity;BME280_pressure;Samples;Min_cycle;Max_cycle;Signal;HPM_P1;HPM_P2
2022/10/16 00:01:45;;;;;;;3.92;3.00;;;;;;;11.82;100.00;100940.53;5067572;28;20033;-61
2022/10/16 00:04:12;;;;;;;6.15;3.42;;;;;;;11.80;100.00;100937.88;5066880;28;20089;-62
2022/10/16 00:06:37;;;;;;;3.95;3.63;;;;;;;11.80;100.00;100940.47;5067093;28;20375;-61
2022/10/16 00:09:03;;;;;;;5.65;3.40;;;;;;;11.80;100.00;100937.00;5055584;28;20029;-62
2022/10/16 00:11:33;;;;;;;7.38;3.70;;;;;;;11.77;100.00;100925.69;5050025;28;20013;-62
2022/10/16 00:14:00;;;;;;;4.55;3.70;;;;;;;11.76;100.00;100929.13;5067151;28;20036;-62
2022/10/16 00:16:27;;;;;;;5.95;2.90;;;;;;;11.75;100.00;100932.56;5067081;28;20311;-62
2022/10/16 00:18:53;;;;;;;4.88;2.95;;;;;;;11.75;100.00;100936.88;5066648;28;20026;-62
2022/10/16 00:21:21;;;;;;;5.85;3.42;;;;;;;11.75;100.00;100937.75;5067078;28;20021;-62
2022/10/16 00:23:46;;;;;;;5.53;3.55;;;;;;;11.74;100.00;100941.19;5067342;28;20016;-62
2022/10/16 00:26:14;;;;;;;4.80;3.60;;;;;;;11.72;100.00;100935.06;5067107;28;20098;-62
2022/10/16 00:28:40;;;;;;;6.38;3.38;;;;;;;11.71;100.00;100932.44;5063186;28;20052;-62
2022/10/16 00:31:10;;;;;;;4.63;3.47;;;;;;;11.69;100.00;100932.41;5055883;28;20075;-62
2022/10/16 00:33:38;;;;;;;6.90;3.08;;;;;;;11.67;100.00;100936.66;5064602;28;20078;-61
2022/10/16 00:36:05;;;;;;;4.85;2.90;;;;;;;11.66;100.00;100929.69;5046795;28;20029;-62
2022/10/16 00:38:31;;;;;;;5.97;3.10;;;;;;;11.64;100.00;100926.16;5084002;28;20105;-62
2022/10/16 00:40:57;;;;;;;5.50;3.10;;;;;;;11.62;100.00;100935.66;5075421;28;20032;-62
2022/10/16 00:43:45;;;;;;;3.55;2.60;;;;;;;11.62;100.00;100938.25;5051553;28;20047;-62
2022/10/16 00:46:13;;;;;;;5.43;3.05;;;;;;;11.59;100.00;100943.31;5059095;28;20052;-62
2022/10/16 00:48:38;;;;;;;4.10;3.05;;;;;;;11.57;100.00;100945.00;5054130;28;20541;-62
2022/10/16 00:51:06;;;;;;;7.13;3.75;;;;;;;11.56;100.00;100943.25;5071139;28;20063;-61
2022/10/16 00:53:33;;;;;;;3.85;3.35;;;;;;;11.56;100.00;100944.13;5055627;28;20029;-62
2022/10/16 00:55:58;;;;;;;5.03;3.35;;;;;;;11.53;100.00;100939.72;5062264;28;20028;-62
2022/10/16 00:58:23;;;;;;;8.48;4.00;;;;;;;11.53;100.00;100942.31;5050335;28;20117;-62
2022/10/16 01:00:49;;;;;;;8.18;3.92;;;;;;;11.53;100.00;100939.72;5064609;28;20044;-62
2022/10/16 01:03:33;;;;;;;5.28;3.55;;;;;;;11.52;100.00;100937.97;5050764;28;20029;-62
2022/10/16 01:06:16;;;;;;;4.07;3.28;;;;;;;11.51;100.00;100943.97;5050199;28;20036;-62
2022/10/16 01:09:04;;;;;;;3.63;2.80;;;;;;;11.49;100.00;100943.06;5057262;28;20555;-61
2022/10/16 01:11:41;;;;;;;5.30;3.17;;;;;;;11.49;100.00;100929.22;5064810;28;20172;-62
2022/10/16 01:14:19;;;;;;;5.63;2.50;;;;;;;11.47;100.00;100929.16;5061431;28;20101;-62
2022/10/16 01:16:52;;;;;;;4.15;2.50;;;;;;;11.46;100.00;100926.53;5055844;28;20037;-62
2022/10/16 01:19:40;;;;;;;4.20;2.15;;;;;;;11.44;100.00;100928.19;5070347;28;20032;-62
2022/10/16 01:22:08;;;;;;;3.08;2.78;;;;;;;11.44;100.00;100930.78;5056290;28;20039;-61
2022/10/16 01:24:45;;;;;;;5.30;2.28;;;;;;;11.43;100.00;100934.19;5070047;28;20116;-62
2022/10/16 01:27:21;;;;;;;4.35;2.42;;;;;;;11.41;100.00;100940.25;5070214;28;20024;-62
2022/10/16 01:29:56;;;;;;;7.40;2.40;;;;;;;11.39;100.00;100946.19;5069624;28;20071;-61
2022/10/16 01:32:38;;;;;;;6.05;3.60;;;;;;;11.39;100.00;100946.19;5057154;28;20036;-62
2022/10/16 01:35:17;;;;;;;3.30;2.92;;;;;;;11.40;100.00;100942.78;5055477;28;20029;-62
2022/10/16 01:37:55;;;;;;;4.22;3.45;;;;;;;11.41;100.00;100944.53;5082170;28;20031;-61
2022/10/16 01:40:25;;;;;;;3.67;3.28;;;;;;;11.40;100.00;100941.06;5072885;28;20035;-62
2022/10/16 01:43:14;;;;;;;7.03;3.70;;;;;;;11.41;100.00;100935.06;5077327;28;20056;-62
2022/10/16 01:45:41;;;;;;;2.83;2.58;;;;;;;11.42;100.00;100941.13;5049157;28;20388;-61
2022/10/16 01:48:09;;;;;;;4.07;2.90;;;;;;;11.44;100.00;100944.63;5063552;28;20576;-62
2022/10/16 01:50:40;;;;;;;7.18;2.97;;;;;;;11.45;100.00;100936.03;5068725;28;20021;-61
2022/10/16 01:53:09;;;;;;;5.00;3.22;;;;;;;11.46;100.00;100934.31;5069225;28;20093;-61
2022/10/16 01:55:41;;;;;;;4.47;3.20;;;;;;;11.47;100.00;100938.66;5068965;28;20028;-62
2022/10/16 01:58:09;;;;;;;4.20;3.70;;;;;;;11.46;100.00;100936.91;5067760;28;20020;-62
2022/10/16 02:00:39;;;;;;;4.95;3.00;;;;;;;11.47;100.00;100941.25;5068669;28;20021;-61
2022/10/16 02:03:06;;;;;;;3.67;3.30;;;;;;;11.47;100.00;100939.56;5070431;28;20028;-61
2022/10/16 02:05:39;;;;;;;3.92;2.80;;;;;;;11.47;100.00;100938.66;5081759;28;20736;-61
2022/10/16 02:08:04;;;;;;;3.45;2.25;;;;;;;11.46;100.00;100927.38;5073227;28;20029;-62
2022/10/16 02:10:30;;;;;;;4.80;2.22;;;;;;;11.46;100.00;100935.19;5065303;28;20085;-62
2022/10/16 02:13:06;;;;;;;2.58;1.90;;;;;;;11.46;100.00;100945.56;5084753;28;20125;-61
2022/10/16 02:15:31;;;;;;;3.40;2.00;;;;;;;11.49;100.00;100942.19;5088796;28;20024;-62
2022/10/16 02:17:57;;;;;;;3.35;1.92;;;;;;;11.49;100.00;100944.78;5088755;28;20028;-61
2022/10/16 02:20:32;;;;;;;2.60;1.52;;;;;;;11.48;100.00;100945.59;5075421;28;20030;-61
2022/10/16 02:22:58;;;;;;;2.55;1.95;;;;;;;11.47;100.00;100944.75;5075375;28;20040;-61
2022/10/16 02:25:39;;;;;;;5.60;2.45;;;;;;;11.45;100.00;100941.22;5069091;28;20435;-62
2022/10/16 02:28:26;;;;;;;2.83;2.55;;;;;;;11.44;100.00;100939.44;5055220;28;20458;-62
2022/10/16 02:30:58;;;;;;;3.67;2.67;;;;;;;11.44;100.00;100938.56;5048924;28;20028;-61
2022/10/16 02:33:25;;;;;;;7.38;2.70;;;;;;;11.43;100.00;100942.88;5063901;28;20025;-62
2022/10/16 02:35:52;;;;;;;4.40;2.95;;;;;;;11.43;100.00;100936.81;5061189;28;20013;-61
2022/10/16 02:38:20;;;;;;;5.63;3.30;;;;;;;11.42;100.00;100941.13;5075459;28;20032;-62
2022/10/16 02:40:45;;;;;;;3.95;2.92;;;;;;;11.41;100.00;100944.53;5083561;28;20021;-61
2022/10/16 02:43:11;;;;;;;3.65;3.28;;;;;;;11.40;100.00;100955.78;5069017;28;20101;-62
2022/10/16 02:45:37;;;;;;;8.25;4.00;;;;;;;11.37;100.00;100950.50;5067473;28;20505;-61
2022/10/16 02:48:02;;;;;;;3.20;2.90;;;;;;;11.35;100.00;100952.16;5068270;28;20043;-62
2022/10/16 02:50:28;;;;;;;4.00;3.13;;;;;;;11.35;100.00;100941.78;5068190;28;20476;-61
2022/10/16 02:52:53;;;;;;;7.05;2.75;;;;;;;11.33;100.00;100935.66;5062301;28;20021;-61
2022/10/16 02:55:18;;;;;;;3.72;3.20;;;;;;;11.32;100.00;100941.66;5061295;28;20020;-62
2022/10/16 02:57:44;;;;;;;4.63;2.83;;;;;;;11.29;100.00;100935.56;5053559;28;20024;-61
2022/10/16 03:00:12;;;;;;;4.47;3.08;;;;;;;11.29;100.00;100932.97;5068459;28;20028;-61
2022/10/16 03:02:38;;;;;;;4.90;3.28;;;;;;;11.28;100.00;100944.16;5067974;28;20024;-61
2022/10/16 03:05:03;;;;;;;6.45;2.75;;;;;;;11.26;100.00;100947.56;5066360;28;20034;-62
2022/10/16 03:07:28;;;;;;;3.58;2.97;;;;;;;11.24;100.00;100950.09;5067202;28;20051;-62
2022/10/16 03:09:55;;;;;;;4.32;3.05;;;;;;;11.23;100.00;100952.63;5065822;28;20099;-61
2022/10/16 03:12:20;;;;;;;3.72;3.03;;;;;;;11.20;100.00;100950.84;5072249;28;20112;-62
2022/10/16 03:14:46;;;;;;;3.08;2.78;;;;;;;11.19;100.00;100956.84;5071771;28;20378;-61
2022/10/16 03:17:12;;;;;;;4.43;3.00;;;;;;;11.17;100.00;100950.75;5068070;28;20154;-61
2022/10/16 03:19:38;;;;;;;4.32;3.03;;;;;;;11.15;100.00;100942.91;5063798;28;20400;-61
2022/10/16 03:22:03;;;;;;;3.08;2.78;;;;;;;11.15;100.00;100960.19;5057087;28;20024;-61
2022/10/16 03:24:28;;;;;;;4.82;3.22;;;;;;;11.14;100.00;100961.00;5063712;28;20036;-61
2022/10/16 03:26:53;;;;;;;4.55;2.55;;;;;;;11.14;100.00;100961.00;5067626;28;20531;-61
2022/10/16 03:29:19;;;;;;;4.30;2.55;;;;;;;11.15;100.00;100967.97;5066925;28;20058;-61
2022/10/16 03:31:44;;;;;;;3.00;2.70;;;;;;;11.15;100.00;100970.56;5067420;28;20032;-61
2022/10/16 03:34:09;;;;;;;4.28;3.17;;;;;;;11.12;100.00;100973.03;5061671;28;20085;-62
2022/10/16 03:36:34;;;;;;;3.28;2.80;;;;;;;11.14;100.00;100984.34;5060337;28;20039;-61
2022/10/16 03:39:00;;;;;;;3.25;3.03;;;;;;;11.14;100.00;100982.66;5049589;28;20176;-62
2022/10/16 03:41:25;;;;;;;4.18;2.80;;;;;;;11.13;100.00;100980.00;5057962;28;20028;-61
2022/10/16 03:43:50;;;;;;;2.95;2.63;;;;;;;11.12;100.00;100983.41;5067073;28;20132;-62
2022/10/16 03:46:15;;;;;;;5.22;2.80;;;;;;;11.11;100.00;100989.44;5067530;28;20495;-61
2022/10/16 03:48:41;;;;;;;2.60;2.40;;;;;;;11.10;100.00;100988.56;5066891;28;20026;-61
2022/10/16 03:51:06;;;;;;;3.17;2.78;;;;;;;11.10;100.00;100987.69;5067568;28;20029;-61
2022/10/16 03:53:32;;;;;;;3.85;3.25;;;;;;;11.09;100.00;100986.81;5066641;28;20220;-62
2022/10/16 03:55:58;;;;;;;3.67;2.92;;;;;;;11.09;100.00;100988.50;5066474;28;20036;-61
2022/10/16 03:58:23;;;;;;;4.07;3.30;;;;;;;11.10;100.00;100990.28;5066937;28;20085;-61
2022/10/16 04:00:48;;;;;;;4.45;3.22;;;;;;;11.09;100.00;100983.31;5067001;28;20449;-61
2022/10/16 04:03:14;;;;;;;3.15;2.85;;;;;;;11.10;100.00;100990.28;5067340;28;20358;-62
2022/10/16 04:05:39;;;;;;;2.90;2.70;;;;;;;11.10;100.00;100995.47;5067150;28;20112;-61
2022/10/16 04:08:05;;;;;;;4.05;2.83;;;;;;;11.10;100.00;100996.34;5067436;28;20026;-61
2022/10/16 04:10:31;;;;;;;6.00;2.95;;;;;;;11.09;100.00;100984.22;5067315;28;20043;-61
2022/10/16 04:12:56;;;;;;;3.28;2.67;;;;;;;11.09;100.00;100993.69;5081074;28;20465;-61
2022/10/16 04:15:23;;;;;;;3.13;2.35;;;;;;;11.09;100.00;100993.69;5076508;28;20051;-61
2022/10/16 04:17:48;;;;;;;3.70;2.13;;;;;;;11.10;100.00;101004.13;5085321;28;20075;-61
2022/10/16 04:20:13;;;;;;;3.53;2.50;;;;;;;11.11;100.00;101007.59;5073673;28;20055;-61
2022/10/16 04:22:39;;;;;;;2.40;2.08;;;;;;;11.11;100.00;101007.59;5073707;28;20353;-62
2022/10/16 04:25:05;;;;;;;4.63;2.28;;;;;;;11.11;100.00;101007.59;5063017;28;20033;-62
2022/10/16 04:27:31;;;;;;;3.08;1.60;;;;;;;11.11;100.00;101007.59;5056715;28;20096;-61
2022/10/16 04:29:57;;;;;;;3.88;1.77;;;;;;;11.11;100.00;101010.19;5066020;28;20032;-61
2022/10/16 04:32:22;;;;;;;3.90;1.67;;;;;;;11.10;100.00;100996.34;5065368;28;20115;-62
2022/10/16 04:34:47;;;;;;;4.97;2.00;;;;;;;11.11;100.00;100997.22;5067108;28;20120;-62
2022/10/16 04:37:13;;;;;;;4.25;2.08;;;;;;;11.12;100.00;100998.97;5066499;28;20024;-61
2022/10/16 04:39:38;;;;;;;5.28;2.55;;;;;;;11.14;100.00;101010.28;5066284;28;20550;-61
2022/10/16 04:42:03;;;;;;;4.78;2.53;;;;;;;11.14;100.00;101018.06;5066178;28;20076;-61
2022/10/16 04:44:28;;;;;;;2.55;2.35;;;;;;;11.15;100.00;101017.25;5066737;28;20495;-61
2022/10/16 04:46:54;;;;;;;4.53;2.83;;;;;;;11.16;100.00;101021.59;5053390;28;20061;-61
2022/10/16 04:49:19;;;;;;;6.07;2.40;;;;;;;11.15;100.00;101025.91;5051456;28;20476;-61
2022/10/16 04:51:44;;;;;;;3.70;2.63;;;;;;;11.15;100.00;101030.22;5063094;28;20081;-62
2022/10/16 04:54:10;;;;;;;4.53;2.35;;;;;;;11.17;100.00;101032.03;5068698;28;20035;-61
2022/10/16 04:56:42;;;;;;;3.72;2.30;;;;;;;11.17;100.00;101033.75;5058983;28;20029;-62
2022/10/16 04:59:08;;;;;;;3.47;2.40;;;;;;;11.16;100.00;101025.09;5061665;28;20021;-62
2022/10/16 05:01:34;;;;;;;2.38;2.17;;;;;;;11.18;100.00;101027.72;5064720;28;20476;-61
2022/10/16 05:03:59;;;;;;;7.90;3.13;;;;;;;11.17;100.00;101033.75;5066830;28;20035;-61
2022/10/16 05:06:24;;;;;;;7.45;3.28;;;;;;;11.17;100.00;101045.00;5074021;28;20036;-62
2022/10/16 05:08:49;;;;;;;2.50;1.92;;;;;;;11.18;100.00;101045.88;5047812;28;20384;-61
2022/10/16 05:11:15;;;;;;;5.47;2.15;;;;;;;11.17;100.00;101054.50;5065490;28;20475;-61
2022/10/16 05:13:40;;;;;;;4.05;2.42;;;;;;;11.17;100.00;101055.38;5076742;28;20024;-61
2022/10/16 05:16:06;;;;;;;7.63;2.65;;;;;;;11.17;100.00;101059.69;5065804;28;20123;-62
2022/10/16 05:18:31;;;;;;;2.58;1.73;;;;;;;11.15;100.00;101056.16;5066444;28;20040;-61
2022/10/16 05:20:57;;;;;;;3.30;2.10;;;;;;;11.15;100.00;101058.75;5066698;28;20047;-61
2022/10/16 05:23:22;;;;;;;4.60;2.42;;;;;;;11.13;100.00;101058.72;5062227;28;20078;-61
2022/10/16 05:25:58;;;;;;;4.85;2.60;;;;;;;11.13;100.00;101053.53;5055310;28;20060;-61
2022/10/16 05:28:24;;;;;;;3.38;2.65;;;;;;;11.13;100.00;101055.22;5076878;28;20024;-61
2022/10/16 05:30:50;;;;;;;3.33;2.30;;;;;;;11.12;100.00;101058.63;5056685;28;20024;-61
2022/10/16 05:33:16;;;;;;;7.03;3.55;;;;;;;11.11;100.00;101064.66;5066873;28;20118;-61
2022/10/16 05:35:41;;;;;;;4.05;3.55;;;;;;;11.09;100.00;101069.81;5069619;28;20059;-61
2022/10/16 05:38:07;;;;;;;4.75;3.50;;;;;;;11.08;100.00;101064.56;5056012;28;20057;-61
2022/10/16 05:40:32;;;;;;;6.60;3.75;;;;;;;11.06;100.00;101072.31;5068448;28;20135;-61
2022/10/16 05:42:57;;;;;;;4.90;3.80;;;;;;;11.04;100.00;101080.00;5062628;28;20131;-61
2022/10/16 05:45:23;;;;;;;5.68;3.53;;;;;;;11.04;100.00;101089.50;5053154;28;20302;-62
2022/10/16 05:47:48;;;;;;;6.40;3.92;;;;;;;11.03;100.00;101088.63;5049997;28;20021;-61
2022/10/16 05:50:13;;;;;;;7.55;3.17;;;;;;;11.03;100.00;101104.19;5052079;28;20488;-61
2022/10/16 05:52:39;;;;;;;4.30;3.25;;;;;;;11.03;100.00;101111.06;5047695;28;20142;-61
2022/10/16 05:55:05;;;;;;;5.85;3.35;;;;;;;11.02;100.00;101111.91;5055284;28;20037;-62
2022/10/16 05:57:30;;;;;;;4.97;3.08;;;;;;;11.02;100.00;101118.00;5046583;28;20473;-61
2022/10/16 05:59:55;;;;;;;4.82;2.75;;;;;;;11.02;100.00;101123.19;5045891;28;20032;-61
2022/10/16 06:02:21;;;;;;;7.13;3.58;;;;;;;11.01;100.00;101121.38;5049138;28;20036;-61
2022/10/16 06:04:46;;;;;;;8.70;3.70;;;;;;;11.01;100.00;101125.72;5047694;28;20508;-61
2022/10/16 06:07:11;;;;;;;5.53;2.85;;;;;;;11.01;100.00;101126.56;5047542;28;20036;-61
2022/10/16 06:09:37;;;;;;;7.72;3.28;;;;;;;11.00;100.00;101129.13;5049703;28;20028;-61
2022/10/16 06:12:02;;;;;;;4.18;2.90;;;;;;;11.00;100.00;101130.00;5049212;28;20393;-61
2022/10/16 06:14:27;;;;;;;5.63;2.90;;;;;;;11.01;100.00;101142.13;5049387;28;20027;-61
2022/10/16 06:16:53;;;;;;;7.32;3.10;;;;;;;11.01;100.00;101152.50;5049527;28;20025;-61
2022/10/16 06:19:18;;;;;;;6.10;3.70;;;;;;;11.02;100.00;101164.66;5048620;28;20029;-61
2022/10/16 06:21:43;;;;;;;4.28;3.08;;;;;;;11.02;100.00;101163.78;5052572;28;20531;-61
2022/10/16 06:24:09;;;;;;;4.97;2.97;;;;;;;11.01;100.00;101168.06;5054149;28;20476;-62
2022/10/16 06:26:34;;;;;;;5.10;3.45;;;;;;;11.02;100.00;101166.38;5074303;28;20020;-61
2022/10/16 06:29:00;;;;;;;4.65;2.85;;;;;;;10.99;100.00;101167.13;5082077;28;20020;-62
2022/10/16 06:31:30;;;;;;;3.65;2.90;;;;;;;10.99;100.00;101169.72;5075432;28;20093;-62
2022/10/16 06:33:56;;;;;;;7.82;3.17;;;;;;;10.99;100.00;101174.91;5069059;28;20032;-62
2022/10/16 06:36:22;;;;;;;4.05;2.95;;;;;;;10.97;100.00;101179.19;5068848;28;20024;-61
2022/10/16 06:38:48;;;;;;;4.75;3.08;;;;;;;10.99;100.00;101182.69;5068526;28;20361;-62
2022/10/16 06:41:16;;;;;;;4.82;2.80;;;;;;;10.96;100.00;101185.19;5067741;28;20151;-61
2022/10/16 06:43:44;;;;;;;4.35;3.05;;;;;;;10.95;100.00;101188.63;5063495;28;20049;-61
2022/10/16 06:46:11;;;;;;;3.72;2.85;;;;;;;10.97;100.00;101191.25;5052520;28;20543;-62
2022/10/16 06:48:37;;;;;;;4.93;2.70;;;;;;;10.98;100.00;101198.19;5048365;28;20092;-62
2022/10/16 06:51:05;;;;;;;4.15;3.38;;;;;;;11.00;100.00;101207.81;5047556;28;20048;-62
2022/10/16 06:53:34;;;;;;;4.05;2.65;;;;;;;10.99;100.00;101208.63;5050635;28;20052;-62
2022/10/16 06:56:13;;;;;;;9.13;3.50;;;;;;;11.02;100.00;101210.47;5052545;28;20025;-62
2022/10/16 06:58:39;;;;;;;3.72;3.42;;;;;;;11.04;100.00;101209.66;5053707;28;20736;-62
2022/10/16 07:01:06;;;;;;;5.93;3.05;;;;;;;11.06;100.00;101220.13;5059917;28;20392;-62
2022/10/16 07:03:32;;;;;;;6.80;3.42;;;;;;;11.09;100.00;101215.03;5052565;28;20024;-62
2022/10/16 07:06:03;;;;;;;3.83;2.95;;;;;;;11.12;100.00;101216.84;5054607;28;20043;-62
2022/10/16 07:08:31;;;;;;;6.68;4.13;;;;;;;11.14;100.00;101217.78;5054804;28;20070;-62
2022/10/16 07:11:01;;;;;;;4.57;3.17;;;;;;;11.18;100.00;101219.66;5054321;28;20029;-62
2022/10/16 07:13:27;;;;;;;6.90;2.77;;;;;;;11.24;100.00;101231.97;5077811;28;20077;-62
2022/10/16 07:15:52;;;;;;;5.00;2.65;;;;;;;11.27;100.00;101237.28;5050295;28;20063;-62
2022/10/16 07:18:18;;;;;;;6.53;2.80;;;;;;;11.31;100.00;101239.16;5060140;28;20020;-62
2022/10/16 07:20:43;;;;;;;5.20;2.78;;;;;;;11.35;100.00;101251.38;5075600;28;20036;-62
2022/10/16 07:23:08;;;;;;;6.10;3.00;;;;;;;11.39;100.00;101247.19;5067299;28;20492;-62
2022/10/16 07:25:34;;;;;;;3.53;2.40;;;;;;;11.42;100.00;101252.50;5067663;28;20020;-62
2022/10/16 07:27:59;;;;;;;5.72;2.47;;;;;;;11.45;100.00;101257.78;5067133;28;20016;-61
2022/10/16 07:30:24;;;;;;;3.95;2.10;;;;;;;11.51;100.00;101255.41;5067457;28;20023;-61
2022/10/16 07:32:49;;;;;;;3.78;2.22;;;;;;;11.55;100.00;101260.72;5068433;28;20024;-62
2022/10/16 07:35:15;;;;;;;5.00;2.33;;;;;;;11.61;100.00;101268.69;5062439;28;20032;-62
2022/10/16 07:37:44;;;;;;;3.08;1.65;;;;;;;11.64;100.00;101274.88;5065124;28;20032;-61
2022/10/16 07:40:10;;;;;;;5.05;1.85;;;;;;;11.70;100.00;101281.13;5050637;28;20318;-61
2022/10/16 07:42:35;;;;;;;3.50;1.77;;;;;;;11.75;100.00;101284.75;5065919;28;20092;-61
2022/10/16 07:45:00;;;;;;;1.77;1.42;;;;;;;11.83;100.00;101290.22;5066175;28;20551;-61
2022/10/16 07:47:26;;;;;;;3.08;1.83;;;;;;;11.89;100.00;101291.28;5067739;28;20066;-62
2022/10/16 07:49:51;;;;;;;2.80;1.83;;;;;;;11.96;100.00;101292.38;5066982;28;20035;-61
2022/10/16 07:52:16;;;;;;;2.58;1.30;;;;;;;12.10;100.00;101302.41;5067999;28;20043;-61
2022/10/16 07:54:41;;;;;;;3.50;1.55;;;;;;;12.19;100.00;101310.50;5065567;28;20108;-62
2022/10/16 07:57:07;;;;;;;3.25;1.83;;;;;;;12.27;100.00;101317.66;5064762;28;20016;-61
2022/10/16 07:59:32;;;;;;;2.30;1.73;;;;;;;12.36;100.00;101312.75;5066073;28;20107;-62
2022/10/16 08:01:57;;;;;;;3.03;1.75;;;;;;;12.45;100.00;101325.16;5066455;28;20378;-62
2022/10/16 08:04:22;;;;;;;3.33;1.58;;;;;;;12.57;100.00;101319.47;5053387;28;20023;-61
2022/10/16 08:06:49;;;;;;;4.85;1.70;;;;;;;12.67;100.00;101316.31;5066023;28;20024;-62
2022/10/16 08:09:14;;;;;;;6.10;1.63;;;;;;;13.02;100.00;101326.03;5065525;28;20430;-62
2022/10/16 08:11:40;;;;;;;4.43;1.48;;;;;;;13.47;100.00;101317.72;5074223;28;20027;-61
2022/10/16 08:14:05;;;;;;;5.05;1.40;;;;;;;13.83;100.00;101332.63;5087954;28;20064;-62
2022/10/16 08:16:31;;;;;;;3.25;1.13;;;;;;;14.14;100.00;101336.00;5067381;28;20381;-62
2022/10/16 08:18:56;;;;;;;5.32;1.80;;;;;;;14.37;100.00;101340.91;5066670;28;20074;-62
2022/10/16 08:21:23;;;;;;;2.30;1.63;;;;;;;14.53;100.00;101354.31;5052347;28;20025;-61
2022/10/16 08:23:50;;;;;;;3.38;1.10;;;;;;;14.55;100.00;101350.03;5066801;28;20020;-61
2022/10/16 08:26:15;;;;;;;5.25;1.27;;;;;;;14.58;100.00;101354.44;5066973;28;20043;-61
2022/10/16 08:28:40;;;;;;;3.35;1.30;;;;;;;14.49;100.00;101355.09;5066882;28;20020;-61
2022/10/16 08:31:08;;;;;;;3.40;1.33;;;;;;;14.45;100.00;101358.47;5066203;28;20028;-61
2022/10/16 08:33:35;;;;;;;1.77;1.45;;;;;;;14.41;100.00;101374.03;5065340;28;20016;-63
2022/10/16 08:36:00;;;;;;;4.07;1.63;;;;;;;14.50;100.00;101369.88;5066534;28;20031;-61
2022/10/16 08:38:26;;;;;;;3.05;1.00;;;;;;;14.57;100.00;101365.72;5066583;28;20028;-62
2022/10/16 08:40:55;;;;;;;3.88;1.60;;;;;;;14.71;100.00;101376.47;5066516;28;20388;-61
2022/10/16 08:43:28;;;;;;;1.40;0.80;;;;;;;15.11;100.00;101381.75;5066168;28;20131;-61
2022/10/16 08:46:21;;;;;;;3.25;1.23;;;;;;;15.56;100.00;101382.66;5066235;28;20024;-62
2022/10/16 08:48:52;;;;;;;6.40;0.90;;;;;;;15.85;100.00;101389.28;5080457;28;20017;-62
2022/10/16 08:51:28;;;;;;;3.85;1.30;;;;;;;16.12;100.00;101385.44;5066770;28;20099;-61
2022/10/16 08:53:58;;;;;;;3.25;1.25;;;;;;;16.29;100.00;101391.00;5064319;28;20070;-62
2022/10/16 08:56:25;;;;;;;2.97;0.98;;;;;;;16.47;100.00;101391.25;5066640;28;20029;-61
2022/10/16 08:58:52;;;;;;;3.85;0.98;;;;;;;16.42;100.00;101388.56;5066242;28;20107;-61
2022/10/16 09:01:22;;;;;;;3.72;1.20;;;;;;;16.35;100.00;101391.94;5066795;28;20028;-62
2022/10/16 09:04:18;;;;;;;6.95;0.90;;;;;;;16.30;100.00;101389.22;5066589;28;20086;-62
2022/10/16 09:06:57;;;;;;;3.35;1.20;;;;;;;16.15;100.00;101396.00;5069924;28;20071;-62
2022/10/16 09:09:50;;;;;;;4.00;1.52;;;;;;;16.03;100.00;101401.84;5078350;28;20032;-62
2022/10/16 09:12:32;;;;;;;4.10;1.27;;;;;;;15.98;100.00;101411.31;5082535;28;20024;-62
2022/10/16 09:15:13;;;;;;;4.25;0.98;;;;;;;15.89;100.00;101409.41;5069781;28;20104;-62
2022/10/16 09:17:38;;;;;;;;;;;;;;;15.77;100.00;101414.41;5070670;28;20107;-62
2022/10/16 09:20:16;;;;;;;3.13;1.10;;;;;;;15.70;100.00;101414.25;5069890;28;20476;-62
2022/10/16 09:22:41;;;;;;;3.83;1.27;;;;;;;15.64;100.00;101419.38;5070510;28;20112;-62
2022/10/16 09:25:16;;;;;;;3.13;1.30;;;;;;;15.58;100.00;101420.13;5069937;28;20028;-62
2022/10/16 09:27:47;;;;;;;5.63;1.60;;;;;;;15.54;100.00;101420.91;5069622;28;20024;-62
2022/10/16 09:30:15;;;;;;;5.97;1.25;;;;;;;15.51;100.00;101423.47;5069402;28;20028;-63
2022/10/16 09:32:43;;;;;;;3.58;1.30;;;;;;;15.47;100.00;101432.09;5069666;28;20412;-62
2022/10/16 09:35:15;;;;;;;4.40;1.20;;;;;;;15.47;100.00;101432.09;5069270;28;20027;-62
2022/10/16 09:37:42;;;;;;;3.92;1.38;;;;;;;15.46;100.00;101436.44;5069953;28;20025;-62
2022/10/16 09:40:34;;;;;;;6.72;1.10;;;;;;;15.42;100.00;101428.50;5068127;28;20016;-62
2022/10/16 09:43:22;;;;;;;3.38;0.95;;;;;;;15.44;100.00;101424.19;5060466;28;20492;-62
2022/10/16 09:46:04;;;;;;;4.05;1.42;;;;;;;15.48;100.00;101433.84;5061313;28;20044;-62
2022/10/16 09:48:48;;;;;;;5.53;1.17;;;;;;;15.50;100.00;101432.16;5068574;28;20051;-62
2022/10/16 09:51:23;;;;;;;8.35;1.35;;;;;;;15.54;100.00;101438.34;5062499;28;20074;-62
2022/10/16 09:53:49;;;;;;;6.00;1.92;;;;;;;15.56;100.00;101445.34;5063494;28;20380;-61
2022/10/16 09:56:24;;;;;;;7.95;1.95;;;;;;;15.58;100.00;101435.81;5055798;28;20024;-62
2022/10/16 09:58:56;;;;;;;3.97;1.42;;;;;;;15.57;100.00;101451.44;5055197;28;20119;-62
2022/10/16 10:01:27;;;;;;;5.32;1.35;;;;;;;15.58;100.00;101447.97;5056281;28;20355;-62
2022/10/16 10:04:00;;;;;;;6.38;1.35;;;;;;;15.59;100.00;101445.44;5069222;28;20507;-62
2022/10/16 10:06:29;;;;;;;4.07;1.00;;;;;;;15.60;100.00;101447.16;5069713;28;20036;-62
2022/10/16 10:08:59;;;;;;;7.28;1.55;;;;;;;15.63;100.00;101453.31;5069564;28;20032;-62
2022/10/16 10:11:38;;;;;;;4.30;1.35;;;;;;;15.61;100.00;101451.53;5073494;28;20035;-62
2022/10/16 10:14:19;;;;;;;4.95;1.30;;;;;;;15.58;100.00;101446.25;5089521;28;20412;-62
2022/10/16 10:16:45;;;;;;;;;;;;;;;15.59;100.00;101453.25;5055920;28;20027;-62
2022/10/16 10:19:28;;;;;;;7.82;1.83;;;;;;;15.57;100.00;101454.94;5068938;28;19912;-62
2022/10/16 10:21:53;;;;;;;6.53;1.38;;;;;;;15.59;100.00;101458.47;5068819;28;20027;-62
2022/10/16 10:24:19;;;;;;;6.47;1.67;;;;;;;15.59;100.00;101463.72;5069387;28;20028;-61
2022/10/16 10:26:53;;;;;;;6.50;1.55;;;;;;;15.57;100.00;101465.41;5068318;28;20070;-63
2022/10/16 10:29:45;;;;;;;6.72;1.50;;;;;;;15.55;100.00;101467.09;5068919;28;20437;-61
2022/10/16 10:32:39;;;;;;;10.10;1.65;;;;;;;15.55;100.00;101472.31;5068271;28;20063;-62
2022/10/16 10:35:17;;;;;;;4.50;1.35;;;;;;;15.53;100.00;101474.00;5062157;28;20040;-61
2022/10/16 10:38:21;;;;;;;8.55;2.35;;;;;;;15.54;100.00;101472.28;5078483;28;20109;-61
2022/10/16 10:41:04;;;;;;;4.28;1.35;;;;;;;15.55;100.00;101476.66;5068578;28;20036;-61
2022/10/16 10:43:46;;;;;;;7.45;2.15;;;;;;;15.53;100.00;101473.13;5053595;28;20052;-61
2022/10/16 10:46:23;;;;;;;4.70;1.30;;;;;;;15.50;100.00;101473.94;5068331;28;20020;-61
2022/10/16 10:49:11;;;;;;;9.65;2.13;;;;;;;15.53;100.00;101478.34;5065609;28;20032;-61
2022/10/16 10:52:01;;;;;;;6.82;1.60;;;;;;;15.55;100.00;101461.88;5048963;28;20029;-61
2022/10/16 10:54:50;;;;;;;6.15;1.48;;;;;;;15.64;100.00;101475.97;5046659;28;20183;-62
2022/10/16 10:57:39;;;;;;;9.05;1.92;;;;;;;15.70;100.00;101478.72;5064498;28;20024;-61
2022/10/16 11:00:30;;;;;;;6.88;1.85;;;;;;;15.84;100.00;101489.44;5068262;28;20387;-62
2022/10/16 11:03:18;;;;;;;5.32;1.30;;;;;;;15.99;100.00;101488.00;5060963;28;20086;-61
2022/10/16 11:05:56;;;;;;;7.07;1.70;;;;;;;16.13;100.00;101483.06;5050280;28;20571;-61
2022/10/16 11:08:40;;;;;;;4.85;1.60;;;;;;;16.25;98.29;101493.75;5052341;28;20025;-61
2022/10/16 11:11:11;;;;;;;8.20;1.90;;;;;;;16.26;95.75;101482.44;5052162;28;20029;-62
2022/10/16 11:13:46;;;;;;;6.50;1.65;;;;;;;16.23;94.14;101487.63;5070558;28;20016;-61
2022/10/16 11:16:18;;;;;;;7.78;2.03;;;;;;;16.19;95.40;101486.66;5078019;28;20038;-61
2022/10/16 11:19:00;;;;;;;8.82;2.15;;;;;;;16.14;94.68;101487.44;5065877;28;20081;-61
2022/10/16 11:21:29;;;;;;;6.07;1.42;;;;;;;16.11;98.12;101488.28;5070010;28;20634;-60
2022/10/16 11:24:06;;;;;;;7.15;2.20;;;;;;;16.18;98.69;101494.50;5061410;28;20036;-60
2022/10/16 11:26:35;;;;;;;10.10;2.42;;;;;;;16.17;97.63;101492.75;5065333;28;20031;-61
2022/10/16 11:29:04;;;;;;;6.75;2.50;;;;;;;16.13;98.47;101485.69;5049808;28;20400;-61